createdAt,value
2019-04-28T00:01:07.570Z,99084.08
2019-04-28T00:03:34.438Z,99081.14
2019-04-28T00:06:01.449Z,99082.76
2019-04-28T00:08:28.920Z,99081.13
2019-04-28T00:10:56.564Z,99080.85
2019-04-28T00:13:23.629Z,99068.70
2019-04-28T00:15:51.652Z,99074.64
2019-04-28T00:18:18.675Z,99078.16
2019-04-28T00:20:53.058Z,99075.72
2019-04-28T00:23:33.565Z,99073.55
2019-04-28T00:26:02.467Z,99077.62
2019-04-28T00:28:31.101Z,99074.65
2019-04-28T00:30:58.875Z,99073.03
2019-04-28T00:33:25.871Z,99064.94
2019-04-28T00:35:52.928Z,99068.98
2019-04-28T00:38:21.497Z,99062.78
2019-04-28T00:40:48.521Z,99061.97
2019-04-28T00:43:15.325Z,99063.31
2019-04-28T00:45:42.405Z,99062.52
2019-04-28T00:48:10.942Z,99063.30
2019-04-28T00:50:38.266Z,99054.95
2019-04-28T00:53:05.804Z,99064.37
2019-04-28T00:55:32.654Z,99061.69
2019-04-28T00:58:00.928Z,99051.70
2019-04-28T01:00:31.348Z,99050.89
2019-04-28T01:02:58.553Z,99049.81
2019-04-28T01:05:25.964Z,99050.36
2019-04-28T01:07:52.861Z,99054.13
2019-04-28T01:10:21.680Z,99056.84
2019-04-28T01:12:48.584Z,99055.77
2019-04-28T01:15:20.097Z,99053.07
2019-04-28T01:17:52.220Z,99060.33
2019-04-28T01:20:23.991Z,99054.93
2019-04-28T01:22:50.849Z,99048.73
2019-04-28T01:25:17.922Z,99047.14
2019-04-28T01:27:47.128Z,99051.98
2019-04-28T01:30:16.651Z,99042.53
2019-04-28T01:32:45.474Z,99049.54
2019-04-28T01:35:12.466Z,99046.83
2019-04-28T01:37:40.759Z,99049.28
2019-04-28T01:40:09.509Z,99052.52
2019-04-28T01:42:36.503Z,99047.66
2019-04-28T01:45:05.574Z,99054.16
2019-04-28T01:47:33.687Z,99059.55
2019-04-28T01:50:01.996Z,99060.06
2019-04-28T01:52:30.267Z,99049.80
2019-04-28T01:54:57.296Z,99056.28
2019-04-28T01:57:24.655Z,99056.02
2019-04-28T01:59:51.505Z,99058.98
2019-04-28T02:02:19.909Z,99053.05
2019-04-28T02:04:47.354Z,99055.21
2019-04-28T02:07:14.799Z,99057.36
2019-04-28T02:09:41.869Z,99056.30
2019-04-28T02:12:10.571Z,99060.08
2019-04-28T02:14:37.685Z,99063.30
2019-04-28T02:17:05.172Z,99062.22
2019-04-28T02:19:33.176Z,99060.06
2019-04-28T02:22:06.670Z,99053.05
2019-04-28T02:24:35.429Z,99054.41
2019-04-28T02:27:02.678Z,99058.19
2019-04-28T02:29:30.333Z,99062.22
2019-04-28T02:32:01.688Z,99056.28
2019-04-28T02:34:30.769Z,99053.59
2019-04-28T02:36:57.256Z,99058.97
2019-04-28T02:39:24.337Z,99053.05
2019-04-28T02:41:52.048Z,99051.69
2019-04-28T02:44:23.007Z,99053.58
2019-04-28T02:46:50.587Z,99052.23
2019-04-28T02:49:20.318Z,99051.95
2019-04-28T02:52:06.469Z,99052.48
2019-04-28T02:54:34.507Z,99054.11
2019-04-28T02:57:01.572Z,99052.25
2019-04-28T02:59:30.448Z,99052.80
2019-04-28T03:01:57.614Z,99049.28
2019-04-28T03:04:24.647Z,99050.62
2019-04-28T03:06:51.953Z,99050.63
2019-04-28T03:09:20.372Z,99047.92
2019-04-28T03:11:47.333Z,99044.98
2019-04-28T03:14:14.707Z,99046.05
2019-04-28T03:16:41.770Z,99039.86
2019-04-28T03:19:10.917Z,99036.62
2019-04-28T03:21:37.896Z,99039.05
2019-04-28T03:24:04.786Z,99038.22
2019-04-28T03:26:31.889Z,99036.89
2019-04-28T03:29:06.237Z,99035.27
2019-04-28T03:32:01.621Z,99035.23
2019-04-28T03:34:04.367Z,99040.09
2019-04-28T03:36:33.432Z,99037.66
2019-04-28T03:39:00.847Z,99036.06
2019-04-28T03:41:30.873Z,99037.09
2019-04-28T03:43:56.580Z,99030.63
2019-04-28T03:46:25.243Z,99037.89
2019-04-28T03:48:52.177Z,99042.44
2019-04-28T03:51:21.173Z,99035.70
2019-04-28T03:53:50.564Z,99034.30
2019-04-28T03:56:16.880Z,99032.15
2019-04-28T03:58:44.122Z,99035.69
2019-04-28T04:01:11.085Z,99032.17
2019-04-28T04:03:38.360Z,99032.70
2019-04-28T04:06:05.203Z,99031.57
2019-04-28T04:08:31.975Z,99032.94
2019-04-28T04:11:01.617Z,99037.25
2019-04-28T04:13:33.411Z,99034.52
2019-04-28T04:16:14.080Z,99027.20
2019-04-28T04:18:40.983Z,99022.05
2019-04-28T04:21:10.858Z,99026.37
2019-04-28T04:23:36.889Z,99023.66
2019-04-28T04:26:03.908Z,99029.34
2019-04-28T04:28:30.770Z,99028.81
2019-04-28T04:31:00.478Z,99036.59
2019-04-28T04:33:26.412Z,99037.89
2019-04-28T04:35:53.507Z,99038.63
2019-04-28T04:38:21.795Z,99042.13
2019-04-28T04:40:51.322Z,99045.06
2019-04-28T04:43:21.059Z,99043.19
2019-04-28T04:45:50.108Z,99045.61
2019-04-28T04:48:16.049Z,99047.80
2019-04-28T04:50:43.257Z,99039.03
2019-04-28T04:53:11.056Z,99042.81
2019-04-28T04:55:40.545Z,99042.30
2019-04-28T04:58:06.921Z,99045.23
2019-04-28T05:00:36.096Z,99039.38
2019-04-28T05:03:10.929Z,99045.86
2019-04-28T05:05:42.399Z,99042.34
2019-04-28T05:08:10.706Z,99044.78
2019-04-28T05:10:40.322Z,99038.31
2019-04-28T05:13:07.046Z,99041.02
2019-04-28T05:15:34.028Z,99044.53
2019-04-28T05:18:01.636Z,99045.90
2019-04-28T05:20:30.257Z,99054.80
2019-04-28T05:23:00.679Z,99055.34
2019-04-28T05:25:32.730Z,99053.19
2019-04-28T05:28:02.890Z,99059.16
2019-04-28T05:30:29.646Z,99054.60
2019-04-28T05:32:57.456Z,99063.20
2019-04-28T05:35:25.228Z,99066.17
2019-04-28T05:37:52.238Z,99063.48
2019-04-28T05:40:20.568Z,99062.95
2019-04-28T05:43:00.914Z,99068.34
2019-04-28T05:45:32.213Z,99068.63
2019-04-28T05:47:59.579Z,99073.52
2019-04-28T05:50:29.700Z,99065.97
2019-04-28T05:53:00.383Z,99071.66
2019-04-28T05:55:35.026Z,99069.77
2019-04-28T05:58:15.805Z,99065.72
2019-04-28T06:00:45.299Z,99064.92
2019-04-28T06:03:24.977Z,99069.50
2019-04-28T06:05:52.227Z,99071.13
2019-04-28T06:08:37.917Z,99073.30
2019-04-28T06:11:23.024Z,99077.61
2019-04-28T06:13:52.448Z,99080.05
2019-04-28T06:16:19.609Z,99080.28
2019-04-28T06:18:49.996Z,99078.91
2019-04-28T06:21:16.605Z,99084.81
2019-04-28T06:23:43.535Z,99083.17
2019-04-28T06:26:10.324Z,99088.30
2019-04-28T06:28:37.259Z,99091.00
2019-04-28T06:31:04.311Z,99093.98
2019-04-28T06:33:31.576Z,99088.84
2019-04-28T06:35:58.369Z,99093.72
2019-04-28T06:38:25.115Z,99093.44
2019-04-28T06:40:52.476Z,99094.25
2019-04-28T06:43:20.066Z,99097.45
2019-04-28T06:45:46.850Z,99099.34
2019-04-28T06:48:13.972Z,99102.84
2019-04-28T06:50:40.798Z,99102.25
2019-04-28T06:53:07.578Z,99111.69
2019-04-28T06:55:34.348Z,99111.69
2019-04-28T06:58:01.506Z,99110.07
2019-04-28T07:00:28.259Z,99103.02
2019-04-28T07:02:55.115Z,99100.00
2019-04-28T07:05:22.166Z,99095.10
2019-04-28T07:07:49.329Z,99103.42
2019-04-28T07:10:18.805Z,99099.16
2019-04-28T07:12:45.600Z,99096.45
2019-04-28T07:15:12.502Z,99098.60
2019-04-28T07:17:39.356Z,99095.87
2019-04-28T07:20:08.833Z,99096.07
2019-04-28T07:22:35.672Z,99100.36
2019-04-28T07:25:13.972Z,99101.77
2019-04-28T07:27:40.868Z,99101.15
2019-04-28T07:30:08.724Z,99100.05
2019-04-28T07:32:36.491Z,99100.59
2019-04-28T07:35:05.541Z,99099.00
2019-04-28T07:37:32.396Z,99097.12
2019-04-28T07:39:59.335Z,99100.59
2019-04-28T07:42:26.153Z,99108.97
2019-04-28T07:44:52.907Z,99103.81
2019-04-28T07:47:20.228Z,99116.68
2019-04-28T07:49:47.379Z,99107.43
2019-04-28T07:52:18.939Z,99117.20
2019-04-28T07:54:45.708Z,99122.69
2019-04-28T07:57:12.584Z,99110.96
2019-04-28T07:59:39.355Z,99110.09
2019-04-28T08:02:06.230Z,99112.62
2019-04-28T08:04:33.441Z,99112.05
2019-04-28T08:07:00.574Z,99110.18
2019-04-28T08:09:27.574Z,99116.37
2019-04-28T08:11:54.354Z,99103.97
2019-04-28T08:14:22.189Z,99105.95
2019-04-28T08:16:49.447Z,99100.34
2019-04-28T08:19:16.616Z,99106.38
2019-04-28T08:21:43.370Z,99107.00
2019-04-28T08:24:10.154Z,99113.92
2019-04-28T08:26:38.330Z,99111.74
2019-04-28T08:29:05.436Z,99108.45
2019-04-28T08:31:34.334Z,99113.10
2019-04-28T08:34:06.094Z,99102.58
2019-04-28T08:36:33.110Z,99102.39
2019-04-28T08:39:00.111Z,99101.22
2019-04-28T08:41:27.017Z,99102.41
2019-04-28T08:43:55.680Z,99101.84
2019-04-28T08:46:22.852Z,99110.30
2019-04-28T08:48:49.844Z,99110.75
2019-04-28T08:51:17.279Z,99112.31
2019-04-28T08:53:44.218Z,99107.81
2019-04-28T08:56:11.378Z,99106.78
2019-04-28T08:58:38.622Z,99108.69
2019-04-28T09:01:06.287Z,99110.14
2019-04-28T09:03:33.485Z,99110.38
2019-04-28T09:06:01.467Z,99108.87
2019-04-28T09:08:28.449Z,99112.73
2019-04-28T09:10:57.551Z,99110.13
2019-04-28T09:13:24.633Z,99112.81
2019-04-28T09:15:51.499Z,99112.16
2019-04-28T09:18:18.772Z,99104.20
2019-04-28T09:20:45.539Z,99110.41
2019-04-28T09:23:14.874Z,99117.77
2019-04-28T09:25:43.879Z,99121.76
2019-04-28T09:28:10.811Z,99120.86
2019-04-28T09:30:37.953Z,99122.03
2019-04-28T09:33:05.288Z,99125.13
2019-04-28T09:35:32.213Z,99128.48
2019-04-28T09:37:58.984Z,99139.28
2019-04-28T09:40:25.789Z,99146.35
2019-04-28T09:43:11.439Z,99146.45
2019-04-28T09:45:46.464Z,99148.08
2019-04-28T09:48:13.461Z,99144.78
2019-04-28T09:50:40.770Z,99141.02
2019-04-28T09:53:07.909Z,99136.38
2019-04-28T09:55:34.942Z,99134.53
2019-04-28T09:58:02.274Z,99128.14
2019-04-28T10:00:29.103Z,99133.22
2019-04-28T10:02:56.130Z,99136.30
2019-04-28T10:05:23.458Z,99134.57
2019-04-28T10:07:50.308Z,99125.51
2019-04-28T10:10:17.929Z,99130.66
2019-04-28T10:12:45.117Z,99130.27
2019-04-28T10:15:15.422Z,99122.16
2019-04-28T10:17:43.211Z,99122.82
2019-04-28T10:20:12.644Z,99122.63
2019-04-28T10:22:41.965Z,99122.89
2019-04-28T10:25:09.686Z,99124.33
2019-04-28T10:27:36.690Z,99118.95
2019-04-28T10:30:07.967Z,99119.50
2019-04-28T10:32:35.924Z,99123.91
2019-04-28T10:35:05.380Z,99122.04
2019-04-28T10:37:32.721Z,99123.55
2019-04-28T10:40:04.790Z,99127.67
2019-04-28T10:42:31.657Z,99132.37
2019-04-28T10:44:59.530Z,99126.42
2019-04-28T10:47:27.888Z,99128.75
2019-04-28T10:49:56.267Z,99117.37
2019-04-28T10:52:24.969Z,99119.40
2019-04-28T10:54:52.422Z,99120.70
2019-04-28T10:57:19.300Z,99121.50
2019-04-28T10:59:47.233Z,99121.95
2019-04-28T11:02:14.215Z,99127.86
2019-04-28T11:04:53.312Z,99131.22
2019-04-28T11:07:20.972Z,99140.87
2019-04-28T11:09:50.640Z,99142.61
2019-04-28T11:12:19.503Z,99144.45
2019-04-28T11:14:48.160Z,99148.73
2019-04-28T11:17:15.999Z,99148.96
2019-04-28T11:19:42.877Z,99143.81
2019-04-28T11:22:10.614Z,99147.23
2019-04-28T11:24:37.759Z,99140.73
2019-04-28T11:27:05.680Z,99135.53
2019-04-28T11:29:33.272Z,99145.55
2019-04-28T11:32:02.035Z,99149.75
2019-04-28T11:34:41.277Z,99140.50
2019-04-28T11:37:10.405Z,99134.30
2019-04-28T11:39:43.289Z,99134.89
2019-04-28T11:42:11.356Z,99128.75
2019-04-28T11:44:38.858Z,99129.19
2019-04-28T11:47:09.237Z,99125.98
2019-04-28T11:49:37.309Z,99124.61
2019-04-28T11:52:06.970Z,99124.61
2019-04-28T11:54:33.903Z,99122.17
2019-04-28T11:57:01.011Z,99115.44
2019-04-28T11:59:28.215Z,99110.37
2019-04-28T12:01:56.245Z,99105.78
2019-04-28T12:04:23.662Z,99099.28
2019-04-28T12:06:50.536Z,99103.39
2019-04-28T12:09:22.073Z,99097.03
2019-04-28T12:11:54.422Z,99105.56
2019-04-28T12:14:36.933Z,99102.73
2019-04-28T12:17:10.884Z,99091.52
2019-04-28T12:19:40.511Z,99090.14
2019-04-28T12:22:07.653Z,99089.21
2019-04-28T12:24:34.543Z,99086.06
2019-04-28T12:27:01.923Z,99092.47
2019-04-28T12:29:28.838Z,99083.17
2019-04-28T12:31:55.685Z,99079.91
2019-04-28T12:34:22.564Z,99081.74
2019-04-28T12:36:49.363Z,99076.41
2019-04-28T12:39:16.906Z,99088.95
2019-04-28T12:41:43.848Z,99071.92
2019-04-28T12:44:10.668Z,99071.71
2019-04-28T12:46:37.744Z,99080.83
2019-04-28T12:49:07.545Z,99083.62
2019-04-28T12:51:34.402Z,99079.50
2019-04-28T12:54:03.101Z,99075.09
2019-04-28T12:56:30.732Z,99070.81
2019-04-28T12:59:01.340Z,99080.84
2019-04-28T13:01:30.241Z,99078.72
2019-04-28T13:04:02.803Z,99074.48
2019-04-28T13:06:29.999Z,99074.98
2019-04-28T13:08:57.177Z,99073.42
2019-04-28T13:11:24.159Z,99066.22
2019-04-28T13:13:51.076Z,99069.88
2019-04-28T13:16:18.068Z,99061.77
2019-04-28T13:18:45.300Z,99062.64
2019-04-28T13:21:12.327Z,99053.88
2019-04-28T13:23:39.227Z,99053.03
2019-04-28T13:26:06.229Z,99053.69
2019-04-28T13:28:33.010Z,99050.20
2019-04-28T13:30:59.905Z,99045.48
2019-04-28T13:33:26.701Z,99040.98
2019-04-28T13:35:53.537Z,99038.95
2019-04-28T13:38:20.368Z,99035.60
2019-04-28T13:40:47.106Z,99041.86
2019-04-28T13:43:13.956Z,99040.97
2019-04-28T13:45:40.933Z,99040.61
2019-04-28T13:48:07.935Z,99042.08
2019-04-28T13:50:36.507Z,99037.22
2019-04-28T13:53:05.219Z,99023.09
2019-04-28T13:55:32.324Z,99021.05
2019-04-28T13:58:01.328Z,99023.47
2019-04-28T14:00:33.193Z,99028.87
2019-04-28T14:03:02.334Z,99021.00
2019-04-28T14:05:32.902Z,99014.75
2019-04-28T14:07:59.868Z,99008.36
2019-04-28T14:10:26.997Z,99004.33
2019-04-28T14:12:53.887Z,99001.09
2019-04-28T14:15:21.234Z,99001.09
2019-04-28T14:17:48.219Z,99000.89
2019-04-28T14:20:15.715Z,98991.16
2019-04-28T14:22:43.146Z,98999.47
2019-04-28T14:25:10.580Z,98989.48
2019-04-28T14:27:37.472Z,98987.19
2019-04-28T14:30:06.661Z,98986.08
2019-04-28T14:32:34.085Z,98988.61
2019-04-28T14:35:01.275Z,98985.33
2019-04-28T14:37:28.172Z,98990.43
2019-04-28T14:39:55.828Z,98989.00
2019-04-28T14:42:22.643Z,98982.45
2019-04-28T14:44:50.008Z,98985.54
2019-04-28T14:47:16.860Z,98988.04
2019-04-28T14:49:44.249Z,98990.50
2019-04-28T14:52:11.690Z,98986.56
2019-04-28T14:54:38.529Z,98990.35
2019-04-28T14:57:05.646Z,98991.17
2019-04-28T14:59:32.555Z,98982.17
2019-04-28T15:02:19.509Z,98987.13
2019-04-28T15:05:02.027Z,98997.70
2019-04-28T15:07:48.690Z,98990.42
2019-04-28T15:10:29.913Z,98990.03
2019-04-28T15:12:57.159Z,98989.45
2019-04-28T15:15:24.084Z,98989.34
2019-04-28T15:17:50.938Z,98979.00
2019-04-28T15:20:20.355Z,98988.28
2019-04-28T15:22:47.241Z,98993.79
2019-04-28T15:25:16.796Z,98999.40
2019-04-28T15:27:43.543Z,98989.16
2019-04-28T15:30:11.271Z,98999.73
2019-04-28T15:32:38.058Z,98993.59
2019-04-28T15:35:05.571Z,99001.78
2019-04-28T15:37:32.488Z,98993.98
2019-04-28T15:40:00.304Z,98997.69
2019-04-28T15:42:27.536Z,98999.95
2019-04-28T15:44:54.578Z,99001.81
2019-04-28T15:47:21.334Z,99006.92
2019-04-28T15:49:48.152Z,99004.23
2019-04-28T15:52:15.281Z,99009.57
2019-04-28T15:54:42.428Z,99009.02
2019-04-28T15:57:09.354Z,99005.33
2019-04-28T15:59:36.756Z,99012.09
2019-04-28T16:02:04.351Z,99008.14
2019-04-28T16:04:31.409Z,99017.42
2019-04-28T16:06:58.187Z,99016.22
2019-04-28T16:09:25.603Z,99020.02
2019-04-28T16:11:52.433Z,99020.02
2019-04-28T16:14:19.293Z,99024.57
2019-04-28T16:16:46.163Z,99023.67
2019-04-28T16:19:15.327Z,99020.44
2019-04-28T16:21:42.110Z,99015.67
2019-04-28T16:24:09.046Z,99018.10
2019-04-28T16:26:36.065Z,99014.31
2019-04-28T16:29:03.701Z,99017.71
2019-04-28T16:31:30.482Z,99012.31
2019-04-28T16:33:57.288Z,99020.51
2019-04-28T16:36:24.228Z,99029.32
2019-04-28T16:38:50.968Z,99030.83
2019-04-28T16:41:18.173Z,99041.99
2019-04-28T16:43:47.615Z,99037.84
2019-04-28T16:46:15.316Z,99036.43
2019-04-28T16:48:42.123Z,99036.43
2019-04-28T16:51:09.144Z,99036.40
2019-04-28T16:53:36.052Z,99034.60
2019-04-28T16:56:08.221Z,99044.52
2019-04-28T16:58:37.298Z,99039.45
2019-04-28T17:01:10.363Z,99045.66
2019-04-28T17:03:38.096Z,99052.84
2019-04-28T17:06:05.210Z,99055.45
2019-04-28T17:08:34.820Z,99054.88
2019-04-28T17:11:02.583Z,99055.25
2019-04-28T17:13:29.660Z,99054.69
2019-04-28T17:15:56.790Z,99059.40
2019-04-28T17:18:23.940Z,99063.45
2019-04-28T17:20:54.150Z,99072.83
2019-04-28T17:23:19.879Z,99083.16
2019-04-28T17:25:47.193Z,99082.87
2019-04-28T17:28:14.162Z,99080.94
2019-04-28T17:30:41.014Z,99085.66
2019-04-28T17:33:07.865Z,99084.55
2019-04-28T17:35:35.074Z,99097.64
2019-04-28T17:38:06.888Z,99093.53
2019-04-28T17:40:31.592Z,99090.62
2019-04-28T17:42:58.391Z,99099.34
2019-04-28T17:45:25.375Z,99104.37
2019-04-28T17:47:54.654Z,99107.34
2019-04-28T17:50:23.471Z,99102.98
2019-04-28T17:52:50.284Z,99109.38
2019-04-28T17:55:17.753Z,99108.17
2019-04-28T17:57:44.652Z,99110.16
2019-04-28T18:00:26.021Z,99112.42
2019-04-28T18:03:11.431Z,99112.84
2019-04-28T18:05:45.991Z,99112.11
2019-04-28T18:08:20.781Z,99119.85
2019-04-28T18:10:41.867Z,99116.52
2019-04-28T18:13:09.042Z,99123.47
2019-04-28T18:15:44.808Z,99121.11
2019-04-28T18:18:16.363Z,99121.42
2019-04-28T18:20:43.128Z,99125.26
2019-04-28T18:23:09.914Z,99131.25
2019-04-28T18:25:39.001Z,99131.79
2019-04-28T18:28:05.762Z,99134.66
2019-04-28T18:30:34.704Z,99136.31
2019-04-28T18:33:03.381Z,99136.31
2019-04-28T18:35:32.838Z,99134.47
2019-04-28T18:38:01.641Z,99144.55
2019-04-28T18:40:37.817Z,99143.50
2019-04-28T18:43:21.721Z,99144.62
2019-04-28T18:45:48.895Z,99145.51
2019-04-28T18:48:15.783Z,99150.61
2019-04-28T18:50:42.966Z,99154.55
2019-04-28T18:53:10.156Z,99166.98
2019-04-28T18:55:36.942Z,99170.53
2019-04-28T18:58:03.851Z,99175.58
2019-04-28T19:00:33.070Z,99173.62
2019-04-28T19:02:59.847Z,99178.27
2019-04-28T19:05:28.732Z,99179.89
2019-04-28T19:07:59.143Z,99184.08
2019-04-28T19:10:32.238Z,99193.39
2019-04-28T19:13:01.303Z,99190.70
2019-04-28T19:15:28.155Z,99196.94
2019-04-28T19:17:57.018Z,99193.25
2019-04-28T19:20:24.389Z,99198.00
2019-04-28T19:22:51.161Z,99199.76
2019-04-28T19:25:17.941Z,99194.39
2019-04-28T19:27:45.092Z,99205.63
2019-04-28T19:30:12.348Z,99208.45
2019-04-28T19:32:39.463Z,99209.13
2019-04-28T19:35:09.424Z,99210.95
2019-04-28T19:37:36.334Z,99215.06
2019-04-28T19:40:06.834Z,99222.05
2019-04-28T19:42:33.582Z,99224.53
2019-04-28T19:45:00.706Z,99232.71
2019-04-28T19:47:27.863Z,99232.42
2019-04-28T19:49:54.620Z,99234.84
2019-04-28T19:52:21.365Z,99238.59
2019-04-28T19:55:05.057Z,99245.55
2019-04-28T19:57:34.116Z,99247.43
2019-04-28T20:00:02.810Z,99251.88
2019-04-28T20:02:31.816Z,99247.02
2019-04-28T20:04:58.820Z,99243.28
2019-04-28T20:07:26.014Z,99246.53
2019-04-28T20:09:52.787Z,99248.65
2019-04-28T20:12:19.652Z,99246.25
2019-04-28T20:14:48.580Z,99241.42
2019-04-28T20:17:15.612Z,99244.41
2019-04-28T20:19:42.403Z,99254.15
2019-04-28T20:22:09.270Z,99250.38
2019-04-28T20:24:46.654Z,99249.84
2019-04-28T20:27:05.655Z,99254.16
2019-04-28T20:29:32.427Z,99248.73
2019-04-28T20:32:02.112Z,99249.81
2019-04-28T20:34:29.277Z,99251.70
2019-04-28T20:37:01.447Z,99253.58
2019-04-28T20:39:30.674Z,99251.96
2019-04-28T20:41:59.734Z,99257.11
2019-04-28T20:44:26.534Z,99257.95
2019-04-28T20:46:53.442Z,99259.31
2019-04-28T20:49:21.091Z,99260.09
2019-04-28T20:51:48.424Z,99261.46
2019-04-28T20:54:16.047Z,99268.20
2019-04-28T20:56:42.984Z,99272.53
2019-04-28T20:59:09.792Z,99269.81
2019-04-28T21:01:36.731Z,99266.86
2019-04-28T21:04:03.714Z,99264.94
2019-04-28T21:06:30.885Z,99262.79
2019-04-28T21:08:58.196Z,99261.17
2019-04-28T21:11:25.376Z,99268.73
2019-04-28T21:13:52.128Z,99270.10
2019-04-28T21:16:18.914Z,99271.16
2019-04-28T21:18:45.654Z,99272.51
2019-04-28T21:21:12.435Z,99274.10
2019-04-28T21:23:40.121Z,99277.83
2019-04-28T21:26:07.277Z,99273.50
2019-04-28T21:28:34.455Z,99277.05
2019-04-28T21:31:01.280Z,99279.39
2019-04-28T21:33:28.358Z,99277.17
2019-04-28T21:35:55.121Z,99283.45
2019-04-28T21:38:21.877Z,99285.36
2019-04-28T21:40:48.672Z,99282.50
2019-04-28T21:43:32.810Z,99287.05
2019-04-28T21:46:01.968Z,99288.66
2019-04-28T21:48:33.608Z,99289.22
2019-04-28T21:51:00.598Z,99292.52
2019-04-28T21:53:27.351Z,99295.23
2019-04-28T21:55:54.115Z,99300.83
2019-04-28T21:58:32.572Z,99294.55
2019-04-28T22:00:56.697Z,99297.61
2019-04-28T22:03:23.975Z,99300.70
2019-04-28T22:05:50.858Z,99298.08
2019-04-28T22:08:20.704Z,99300.50
2019-04-28T22:10:48.101Z,99300.34
2019-04-28T22:13:14.912Z,99305.80
2019-04-28T22:15:42.182Z,99308.46
2019-04-28T22:18:09.395Z,99308.19
2019-04-28T22:20:39.307Z,99309.98
2019-04-28T22:23:18.272Z,99306.38
2019-04-28T22:25:36.648Z,99310.58
2019-04-28T22:28:03.877Z,99313.28
2019-04-28T22:30:30.718Z,99309.36
2019-04-28T22:32:57.678Z,99304.72
2019-04-28T22:35:24.489Z,99307.93
2019-04-28T22:37:51.787Z,99306.98
2019-04-28T22:40:18.593Z,99311.37
2019-04-28T22:42:45.390Z,99313.98
2019-04-28T22:45:13.360Z,99314.51
2019-04-28T22:47:40.671Z,99313.48
2019-04-28T22:50:38.384Z,99311.22
2019-04-28T22:53:05.936Z,99315.96
2019-04-28T22:55:34.829Z,99318.55
2019-04-28T22:58:01.731Z,99320.02
2019-04-28T23:00:33.750Z,99314.98
2019-04-28T23:03:00.700Z,99317.31
2019-04-28T23:05:28.090Z,99322.06
2019-04-28T23:07:55.135Z,99318.55
2019-04-28T23:10:22.651Z,99323.30
2019-04-28T23:12:49.593Z,99325.80
2019-04-28T23:15:16.988Z,99324.36
2019-04-28T23:17:44.317Z,99328.91
2019-04-28T23:20:12.073Z,99328.16
2019-04-28T23:22:47.110Z,99331.41
2019-04-28T23:25:13.291Z,99329.92
2019-04-28T23:27:40.223Z,99330.80
2019-04-28T23:30:08.788Z,99330.75
2019-04-28T23:32:35.815Z,99332.94
2019-04-28T23:35:04.687Z,99330.14
2019-04-28T23:37:31.595Z,99322.42
2019-04-28T23:39:58.393Z,99314.69
2019-04-28T23:42:45.191Z,99317.09
2019-04-28T23:45:12.870Z,99313.53
2019-04-28T23:47:39.670Z,99316.17
2019-04-28T23:50:08.952Z,99314.68
2019-04-28T23:52:37.796Z,99319.33
2019-04-28T23:55:07.490Z,99313.67
2019-04-28T23:57:34.852Z,99316.69
